createdAt,value
2023-12-09T00:00:32.468Z,8.15
2023-12-09T00:01:32.461Z,8.15
2023-12-09T00:02:32.388Z,8.15
2023-12-09T00:03:32.463Z,8.14
2023-12-09T00:04:32.407Z,8.14
2023-12-09T00:05:32.422Z,8.12
2023-12-09T00:06:33.910Z,8.11
2023-12-09T00:07:32.340Z,8.12
2023-12-09T00:08:32.342Z,8.12
2023-12-09T00:09:32.322Z,8.10
2023-12-09T00:10:32.293Z,8.10
2023-12-09T00:11:32.291Z,8.08
2023-12-09T00:12:32.376Z,8.10
2023-12-09T00:13:32.314Z,8.11
2023-12-09T00:14:32.245Z,8.12
2023-12-09T00:15:32.316Z,8.15
2023-12-09T00:16:32.286Z,8.14
2023-12-09T00:17:32.409Z,8.15
2023-12-09T00:18:32.336Z,8.17
2023-12-09T00:19:32.273Z,8.15
2023-12-09T00:20:32.196Z,8.17
2023-12-09T00:21:32.223Z,8.17
2023-12-09T00:22:32.186Z,8.17
2023-12-09T00:23:32.152Z,8.18
2023-12-09T00:24:32.237Z,8.20
2023-12-09T00:25:32.150Z,8.21
2023-12-09T00:26:32.339Z,8.20
2023-12-09T00:27:32.122Z,8.21
2023-12-09T00:28:32.092Z,8.20
2023-12-09T00:29:32.120Z,8.20
2023-12-09T00:30:32.117Z,8.20
2023-12-09T00:31:32.062Z,8.18
2023-12-09T00:32:32.404Z,8.20
2023-12-09T00:33:32.126Z,8.21
2023-12-09T00:34:32.068Z,8.21
2023-12-09T00:35:32.005Z,8.22
2023-12-09T00:36:32.007Z,8.26
2023-12-09T00:37:31.981Z,8.28
2023-12-09T00:38:32.002Z,8.25
2023-12-09T00:39:32.002Z,8.25
2023-12-09T00:40:31.941Z,8.26
2023-12-09T00:41:31.946Z,8.28
2023-12-09T00:42:31.979Z,8.28
2023-12-09T00:43:31.911Z,8.29
2023-12-09T00:44:31.922Z,8.29
2023-12-09T00:45:31.930Z,8.30
2023-12-09T00:46:31.881Z,8.32
2023-12-09T00:47:31.876Z,8.32
2023-12-09T00:48:31.961Z,8.33
2023-12-09T00:49:31.994Z,8.32
2023-12-09T00:50:31.820Z,8.32
2023-12-09T00:51:31.842Z,8.32
2023-12-09T00:52:31.803Z,8.33
2023-12-09T00:53:31.816Z,8.35
2023-12-09T00:54:31.902Z,8.33
2023-12-09T00:55:31.802Z,8.36
2023-12-09T00:56:34.696Z,8.35
2023-12-09T00:57:31.784Z,8.35
2023-12-09T00:58:31.727Z,8.37
2023-12-09T00:59:31.718Z,8.39
2023-12-09T01:00:31.777Z,8.37
2023-12-09T01:01:31.841Z,8.39
2023-12-09T01:02:31.819Z,8.40
2023-12-09T01:03:31.760Z,8.39
2023-12-09T01:04:31.666Z,8.37
2023-12-09T01:05:31.684Z,8.37
2023-12-09T01:06:31.717Z,8.37
2023-12-09T01:07:31.660Z,8.37
2023-12-09T01:08:31.619Z,8.37
2023-12-09T01:09:31.719Z,8.36
2023-12-09T01:10:31.584Z,8.35
2023-12-09T01:11:31.609Z,8.35
2023-12-09T01:12:31.668Z,8.35
2023-12-09T01:13:31.590Z,8.35
2023-12-09T01:14:31.547Z,8.36
2023-12-09T01:15:31.553Z,8.37
2023-12-09T01:16:31.516Z,8.37
2023-12-09T01:17:31.544Z,8.37
2023-12-09T01:18:31.548Z,8.37
2023-12-09T01:19:31.554Z,8.35
2023-12-09T01:20:31.477Z,8.36
2023-12-09T01:21:31.513Z,8.35
2023-12-09T01:22:31.474Z,8.32
2023-12-09T01:23:31.465Z,8.32
2023-12-09T01:24:31.460Z,8.32
2023-12-09T01:25:31.416Z,8.30
2023-12-09T01:26:31.423Z,8.32
2023-12-09T01:27:31.426Z,8.30
2023-12-09T01:28:31.390Z,8.30
2023-12-09T01:29:31.369Z,8.29
2023-12-09T01:30:31.398Z,8.30
2023-12-09T01:31:31.352Z,8.29
2023-12-09T01:32:31.505Z,8.28
2023-12-09T01:33:31.473Z,8.29
2023-12-09T01:34:31.400Z,8.29
2023-12-09T01:35:31.306Z,8.29
2023-12-09T01:36:31.392Z,8.32
2023-12-09T01:37:31.297Z,8.30
2023-12-09T01:38:31.258Z,8.30
2023-12-09T01:39:31.319Z,8.30
2023-12-09T01:40:31.268Z,8.32
2023-12-09T01:41:31.273Z,8.33
2023-12-09T01:42:31.638Z,8.33
2023-12-09T01:43:31.210Z,8.33
2023-12-09T01:44:31.199Z,8.32
2023-12-09T01:45:31.228Z,8.32
2023-12-09T01:46:31.199Z,8.30
2023-12-09T01:47:31.176Z,8.30
2023-12-09T01:48:31.328Z,8.30
2023-12-09T01:49:31.282Z,8.28
2023-12-09T01:50:31.173Z,8.25
2023-12-09T01:51:31.130Z,8.21
2023-12-09T01:52:31.119Z,8.18
2023-12-09T01:53:31.116Z,8.15
2023-12-09T01:54:31.125Z,8.14
2023-12-09T01:55:31.733Z,8.14
2023-12-09T01:56:31.060Z,8.14
2023-12-09T01:57:31.332Z,8.14
2023-12-09T01:58:31.057Z,8.12
2023-12-09T01:59:31.018Z,8.14
2023-12-09T02:00:31.178Z,8.11
2023-12-09T02:01:30.993Z,8.11
2023-12-09T02:02:31.297Z,8.10
2023-12-09T02:03:31.025Z,8.11
2023-12-09T02:04:30.955Z,8.08
2023-12-09T02:05:30.961Z,8.11
2023-12-09T02:06:30.996Z,8.10
2023-12-09T02:07:30.926Z,8.07
2023-12-09T02:08:30.928Z,8.07
2023-12-09T02:09:30.979Z,8.08
2023-12-09T02:10:30.940Z,8.10
2023-12-09T02:11:30.881Z,8.10
2023-12-09T02:12:31.242Z,8.10
2023-12-09T02:13:30.858Z,8.11
2023-12-09T02:14:30.872Z,8.14
2023-12-09T02:15:30.849Z,8.12
2023-12-09T02:16:30.808Z,8.14
2023-12-09T02:17:30.833Z,8.12
2023-12-09T02:18:30.916Z,8.12
2023-12-09T02:19:30.823Z,8.14
2023-12-09T02:20:30.788Z,8.12
2023-12-09T02:21:30.788Z,8.12
2023-12-09T02:22:30.769Z,8.12
2023-12-09T02:23:30.761Z,8.12
2023-12-09T02:24:30.785Z,8.15
2023-12-09T02:25:30.711Z,8.17
2023-12-09T02:26:30.711Z,8.17
2023-12-09T02:27:30.777Z,8.17
2023-12-09T02:28:30.673Z,8.17
2023-12-09T02:29:30.658Z,8.17
2023-12-09T02:30:30.735Z,8.17
2023-12-09T02:31:30.684Z,8.15
2023-12-09T02:32:30.853Z,8.15
2023-12-09T02:33:30.727Z,8.17
2023-12-09T02:34:30.723Z,8.14
2023-12-09T02:35:30.631Z,8.12
2023-12-09T02:36:30.613Z,8.11
2023-12-09T02:37:30.613Z,8.12
2023-12-09T02:38:30.553Z,8.10
2023-12-09T02:39:30.674Z,8.10
2023-12-09T02:40:30.543Z,8.10
2023-12-09T02:41:30.524Z,8.10
2023-12-09T02:42:30.880Z,8.08
2023-12-09T02:43:30.503Z,8.12
2023-12-09T02:44:30.486Z,8.11
2023-12-09T02:45:30.525Z,8.11
2023-12-09T02:46:30.473Z,8.11
2023-12-09T02:47:30.514Z,8.11
2023-12-09T02:48:30.547Z,8.11
2023-12-09T02:49:30.553Z,8.10
2023-12-09T02:50:30.455Z,8.11
2023-12-09T02:51:30.494Z,8.11
2023-12-09T02:52:30.468Z,8.08
2023-12-09T02:53:30.385Z,8.07
2023-12-09T02:54:30.398Z,8.04
2023-12-09T02:55:30.367Z,8.03
2023-12-09T02:56:30.373Z,8.03
2023-12-09T02:57:30.371Z,8.00
2023-12-09T02:58:30.326Z,8.00
2023-12-09T02:59:30.325Z,7.96
2023-12-09T03:00:30.361Z,7.96
2023-12-09T03:01:30.346Z,7.96
2023-12-09T03:02:30.268Z,7.93
2023-12-09T03:03:30.389Z,7.93
2023-12-09T03:04:30.264Z,7.90
2023-12-09T03:05:30.273Z,7.89
2023-12-09T03:06:30.335Z,7.84
2023-12-09T03:07:30.242Z,7.81
2023-12-09T03:08:30.196Z,7.79
2023-12-09T03:09:30.276Z,7.79
2023-12-09T03:10:30.175Z,7.81
2023-12-09T03:11:30.168Z,7.78
2023-12-09T03:12:30.462Z,7.77
2023-12-09T03:13:30.152Z,7.75
2023-12-09T03:14:30.226Z,7.77
2023-12-09T03:15:30.206Z,7.75
2023-12-09T03:16:30.110Z,7.77
2023-12-09T03:17:30.148Z,7.72
2023-12-09T03:18:30.218Z,7.72
2023-12-09T03:19:30.145Z,7.69
2023-12-09T03:20:30.083Z,7.69
2023-12-09T03:21:30.086Z,7.69
2023-12-09T03:22:30.050Z,7.69
2023-12-09T03:23:30.025Z,7.67
2023-12-09T03:24:30.132Z,7.67
2023-12-09T03:25:30.019Z,7.69
2023-12-09T03:26:30.020Z,7.67
2023-12-09T03:27:30.048Z,7.66
2023-12-09T03:28:29.964Z,7.66
2023-12-09T03:29:29.952Z,7.63
2023-12-09T03:30:29.983Z,7.62
2023-12-09T03:31:29.933Z,7.60
2023-12-09T03:32:30.274Z,7.58
2023-12-09T03:33:30.002Z,7.56
2023-12-09T03:34:29.941Z,7.56
2023-12-09T03:35:29.878Z,7.52
2023-12-09T03:36:29.894Z,7.52
2023-12-09T03:37:29.854Z,7.50
2023-12-09T03:38:29.875Z,7.52
2023-12-09T03:39:29.876Z,7.52
2023-12-09T03:40:29.837Z,7.50
2023-12-09T03:41:29.803Z,7.47
2023-12-09T03:42:30.054Z,7.49
2023-12-09T03:43:29.926Z,7.44
2023-12-09T03:44:29.788Z,7.44
2023-12-09T03:45:29.770Z,7.44
2023-12-09T03:46:29.752Z,7.44
2023-12-09T03:47:30.110Z,7.40
2023-12-09T03:48:29.935Z,7.42
2023-12-09T03:49:29.828Z,7.40
2023-12-09T03:50:29.732Z,7.40
2023-12-09T03:51:29.742Z,7.38
2023-12-09T03:52:29.951Z,7.35
2023-12-09T03:53:29.697Z,7.34
2023-12-09T03:54:29.663Z,7.35
2023-12-09T03:55:29.640Z,7.32
2023-12-09T03:56:29.634Z,7.32
2023-12-09T03:57:29.642Z,7.29
2023-12-09T03:58:29.613Z,7.27
2023-12-09T03:59:29.613Z,7.27
2023-12-09T04:00:29.613Z,7.27
2023-12-09T04:01:29.605Z,7.27
2023-12-09T04:02:29.893Z,7.29
2023-12-09T04:03:29.622Z,7.27
2023-12-09T04:04:29.590Z,7.27
2023-12-09T04:05:29.638Z,7.24
2023-12-09T04:06:29.541Z,7.26
2023-12-09T04:07:29.501Z,7.23
2023-12-09T04:08:29.533Z,7.23
2023-12-09T04:09:29.527Z,7.23
2023-12-09T04:10:29.483Z,7.20
2023-12-09T04:11:37.001Z,7.22
2023-12-09T04:12:29.788Z,7.20
2023-12-09T04:13:29.439Z,7.19
2023-12-09T04:14:29.428Z,7.20
2023-12-09T04:15:29.450Z,7.20
2023-12-09T04:16:29.408Z,7.20
2023-12-09T04:17:29.473Z,7.19
2023-12-09T04:18:29.500Z,7.19
2023-12-09T04:19:29.478Z,7.17
2023-12-09T04:20:29.485Z,7.19
2023-12-09T04:21:29.377Z,7.19
2023-12-09T04:22:29.477Z,7.19
2023-12-09T04:23:29.360Z,7.19
2023-12-09T04:24:29.387Z,7.22
2023-12-09T04:25:29.303Z,7.20
2023-12-09T04:26:29.288Z,7.23
2023-12-09T04:27:29.294Z,7.24
2023-12-09T04:28:29.303Z,7.23
2023-12-09T04:29:29.269Z,7.20
2023-12-09T04:30:29.263Z,7.19
2023-12-09T04:31:29.242Z,7.16
2023-12-09T04:32:29.568Z,7.17
2023-12-09T04:33:29.235Z,7.19
2023-12-09T04:34:29.286Z,7.19
2023-12-09T04:35:29.195Z,7.17
2023-12-09T04:36:29.247Z,7.17
2023-12-09T04:37:29.159Z,7.19
2023-12-09T04:38:29.157Z,7.17
2023-12-09T04:39:29.205Z,7.17
2023-12-09T04:40:29.128Z,7.17
2023-12-09T04:41:29.115Z,7.19
2023-12-09T04:42:29.608Z,7.17
2023-12-09T04:43:29.086Z,7.17
2023-12-09T04:44:29.079Z,7.15
2023-12-09T04:45:29.156Z,7.15
2023-12-09T04:46:29.067Z,7.13
2023-12-09T04:47:29.105Z,7.13
2023-12-09T04:48:29.141Z,7.15
2023-12-09T04:49:29.061Z,7.15
2023-12-09T04:50:29.034Z,7.15
2023-12-09T04:51:29.047Z,7.09
2023-12-09T04:52:29.346Z,7.08
2023-12-09T04:53:28.973Z,7.08
2023-12-09T04:54:29.015Z,7.09
2023-12-09T04:55:28.982Z,7.07
2023-12-09T04:56:28.952Z,7.07
2023-12-09T04:57:28.985Z,7.07
2023-12-09T04:58:28.940Z,7.05
2023-12-09T04:59:28.947Z,7.04
2023-12-09T05:00:28.918Z,7.05
2023-12-09T05:01:28.907Z,7.01
2023-12-09T05:02:29.201Z,7.01
2023-12-09T05:03:28.923Z,6.98
2023-12-09T05:04:28.886Z,6.99
2023-12-09T05:05:28.881Z,6.98
2023-12-09T05:06:28.894Z,6.97
2023-12-09T05:07:28.818Z,6.98
2023-12-09T05:08:28.827Z,6.98
2023-12-09T05:09:28.805Z,6.99
2023-12-09T05:10:28.784Z,6.98
2023-12-09T05:11:28.773Z,6.97
2023-12-09T05:12:29.092Z,6.98
2023-12-09T05:13:28.746Z,6.97
2023-12-09T05:14:28.746Z,6.97
2023-12-09T05:15:31.169Z,6.97
2023-12-09T05:16:28.725Z,6.95
2023-12-09T05:17:28.741Z,6.95
2023-12-09T05:18:28.826Z,6.97
2023-12-09T05:19:28.947Z,6.95
2023-12-09T05:20:28.674Z,6.95
2023-12-09T05:21:35.431Z,6.94
2023-12-09T05:22:29.918Z,6.94
2023-12-09T05:23:28.635Z,6.91
2023-12-09T05:24:28.650Z,6.91
2023-12-09T05:25:28.618Z,6.94
2023-12-09T05:26:28.624Z,6.94
2023-12-09T05:27:28.668Z,6.91
2023-12-09T05:28:28.570Z,6.91
2023-12-09T05:29:28.571Z,6.94
2023-12-09T05:30:28.595Z,6.94
2023-12-09T05:31:28.537Z,6.95
2023-12-09T05:32:28.855Z,6.95
2023-12-09T05:33:28.683Z,6.94
2023-12-09T05:34:28.670Z,6.91
2023-12-09T05:35:28.493Z,6.90
2023-12-09T05:36:28.528Z,6.94
2023-12-09T05:37:28.490Z,6.94
2023-12-09T05:38:28.478Z,6.94
2023-12-09T05:39:28.489Z,6.94
2023-12-09T05:40:28.435Z,6.91
2023-12-09T05:41:28.460Z,6.89
2023-12-09T05:42:28.705Z,6.90
2023-12-09T05:43:28.400Z,6.90
2023-12-09T05:44:28.404Z,6.91
2023-12-09T05:45:28.391Z,6.90
2023-12-09T05:46:28.378Z,6.90
2023-12-09T05:47:28.426Z,6.89
2023-12-09T05:48:28.423Z,6.90
2023-12-09T05:49:28.429Z,6.91
2023-12-09T05:50:28.328Z,6.94
2023-12-09T05:51:28.324Z,6.94
2023-12-09T05:52:28.715Z,6.97
2023-12-09T05:53:28.294Z,6.95
2023-12-09T05:54:28.332Z,6.95
2023-12-09T05:55:28.262Z,6.91
2023-12-09T05:56:28.252Z,6.91
2023-12-09T05:57:28.267Z,6.94
2023-12-09T05:58:28.226Z,6.90
2023-12-09T05:59:28.223Z,6.94
2023-12-09T06:00:28.270Z,6.94
2023-12-09T06:01:28.265Z,6.94
2023-12-09T06:02:28.410Z,6.94
2023-12-09T06:03:28.198Z,6.95
2023-12-09T06:04:28.214Z,6.95
2023-12-09T06:05:28.183Z,6.97
2023-12-09T06:06:28.205Z,6.95
2023-12-09T06:07:28.133Z,6.97
2023-12-09T06:08:28.149Z,6.95
2023-12-09T06:09:28.121Z,6.95
2023-12-09T06:10:28.119Z,6.95
2023-12-09T06:11:28.068Z,6.97
2023-12-09T06:12:28.383Z,6.97
2023-12-09T06:13:28.041Z,6.98
2023-12-09T06:14:28.062Z,6.98
2023-12-09T06:15:28.081Z,6.97
2023-12-09T06:16:28.056Z,6.99
2023-12-09T06:17:28.048Z,6.98
2023-12-09T06:18:28.137Z,6.98
2023-12-09T06:19:27.997Z,6.97
2023-12-09T06:20:27.980Z,6.95
2023-12-09T06:21:28.006Z,6.91
2023-12-09T06:22:28.247Z,6.91
2023-12-09T06:23:27.936Z,6.94
2023-12-09T06:24:28.004Z,6.90
2023-12-09T06:25:27.915Z,6.89
2023-12-09T06:26:27.897Z,6.89
2023-12-09T06:27:27.959Z,6.89
2023-12-09T06:28:27.878Z,6.90
2023-12-09T06:29:27.862Z,6.89
2023-12-09T06:30:27.911Z,6.90
2023-12-09T06:31:27.842Z,6.89
2023-12-09T06:32:28.038Z,6.87
2023-12-09T06:33:27.939Z,6.89
2023-12-09T06:34:27.850Z,6.89
2023-12-09T06:35:27.876Z,6.89
2023-12-09T06:36:27.845Z,6.89
2023-12-09T06:37:27.932Z,6.94
2023-12-09T06:38:27.763Z,6.91
2023-12-09T06:39:27.806Z,6.91
2023-12-09T06:40:27.729Z,6.91
2023-12-09T06:41:27.729Z,6.91
2023-12-09T06:42:28.051Z,6.91
2023-12-09T06:43:27.744Z,6.91
2023-12-09T06:44:27.693Z,6.94
2023-12-09T06:45:27.706Z,6.94
2023-12-09T06:46:27.668Z,6.94
2023-12-09T06:47:27.670Z,6.95
2023-12-09T06:48:27.805Z,6.95
2023-12-09T06:49:27.730Z,6.97
2023-12-09T06:50:27.646Z,6.95
2023-12-09T06:51:27.658Z,6.97
2023-12-09T06:52:27.842Z,6.97
2023-12-09T06:53:27.622Z,6.95
2023-12-09T06:54:27.658Z,6.91
2023-12-09T06:55:27.597Z,6.94
2023-12-09T06:56:27.566Z,6.94
2023-12-09T06:57:27.743Z,6.95
2023-12-09T06:58:27.561Z,6.91
2023-12-09T06:59:27.565Z,6.95
2023-12-09T07:00:27.665Z,6.97
2023-12-09T07:01:27.540Z,6.98
2023-12-09T07:02:34.711Z,6.99
2023-12-09T07:03:28.529Z,6.99
2023-12-09T07:04:27.709Z,7.01
2023-12-09T07:05:27.941Z,7.02
2023-12-09T07:06:27.560Z,7.04
2023-12-09T07:07:27.445Z,7.02
2023-12-09T07:08:30.058Z,7.05
2023-12-09T07:09:27.434Z,7.08
2023-12-09T07:10:27.440Z,7.08
2023-12-09T07:11:27.390Z,7.09
2023-12-09T07:12:27.621Z,7.09
2023-12-09T07:13:27.390Z,7.12
2023-12-09T07:14:27.376Z,7.13
2023-12-09T07:15:27.562Z,7.12
2023-12-09T07:16:27.329Z,7.09
2023-12-09T07:17:27.351Z,7.13
2023-12-09T07:18:27.433Z,7.15
2023-12-09T07:19:27.388Z,7.16
2023-12-09T07:20:27.283Z,7.16
2023-12-09T07:21:27.281Z,7.13
2023-12-09T07:22:27.615Z,7.16
2023-12-09T07:23:27.238Z,7.16
2023-12-09T07:24:27.254Z,7.15
2023-12-09T07:25:27.207Z,7.16
2023-12-09T07:26:27.203Z,7.15
2023-12-09T07:27:27.221Z,7.17
2023-12-09T07:28:27.195Z,7.19
2023-12-09T07:29:29.111Z,7.19
2023-12-09T07:30:27.175Z,7.23
2023-12-09T07:31:27.165Z,7.23
2023-12-09T07:32:27.427Z,7.24
2023-12-09T07:33:27.208Z,7.26
2023-12-09T07:34:27.328Z,7.26
2023-12-09T07:35:27.092Z,7.27
2023-12-09T07:36:27.125Z,7.29
2023-12-09T07:37:27.388Z,7.29
2023-12-09T07:38:27.074Z,7.31
2023-12-09T07:39:27.096Z,7.32
2023-12-09T07:40:27.090Z,7.34
2023-12-09T07:41:27.040Z,7.35
2023-12-09T07:42:27.295Z,7.38
2023-12-09T07:43:27.012Z,7.37
2023-12-09T07:44:26.997Z,7.38
2023-12-09T07:45:27.044Z,7.38
2023-12-09T07:46:26.962Z,7.40
2023-12-09T07:47:26.958Z,7.42
2023-12-09T07:48:27.097Z,7.44
2023-12-09T07:49:27.022Z,7.45
2023-12-09T07:50:26.917Z,7.47
2023-12-09T07:51:26.971Z,7.50
2023-12-09T07:52:27.318Z,7.53
2023-12-09T07:53:26.894Z,7.56
2023-12-09T07:54:26.951Z,7.55
2023-12-09T07:55:26.865Z,7.53
2023-12-09T07:56:26.854Z,7.55
2023-12-09T07:57:26.892Z,7.55
2023-12-09T07:58:26.864Z,7.56
2023-12-09T07:59:26.822Z,7.59
2023-12-09T08:00:26.902Z,7.59
2023-12-09T08:01:26.840Z,7.60
2023-12-09T08:02:27.010Z,7.63
2023-12-09T08:03:26.843Z,7.62
2023-12-09T08:04:26.852Z,7.60
2023-12-09T08:05:26.798Z,7.63
2023-12-09T08:06:26.773Z,7.63
2023-12-09T08:07:27.029Z,7.67
2023-12-09T08:08:26.713Z,7.67
2023-12-09T08:09:26.797Z,7.72
2023-12-09T08:10:26.689Z,7.71
2023-12-09T08:11:26.712Z,7.72
2023-12-09T08:12:26.879Z,7.71
2023-12-09T08:13:26.679Z,7.72
2023-12-09T08:14:26.641Z,7.77
2023-12-09T08:15:26.691Z,7.77
2023-12-09T08:16:26.619Z,7.77
2023-12-09T08:17:26.842Z,7.79
2023-12-09T08:18:26.776Z,7.82
2023-12-09T08:19:26.706Z,7.84
2023-12-09T08:20:26.583Z,7.87
2023-12-09T08:21:26.608Z,7.90
2023-12-09T08:22:26.938Z,7.92
2023-12-09T08:23:26.554Z,7.94
2023-12-09T08:24:26.547Z,7.96
2023-12-09T08:25:26.556Z,7.97
2023-12-09T08:26:26.514Z,7.99
2023-12-09T08:27:26.589Z,8.02
2023-12-09T08:28:26.500Z,8.03
2023-12-09T08:29:29.543Z,8.07
2023-12-09T08:30:26.510Z,8.10
2023-12-09T08:31:26.457Z,8.07
2023-12-09T08:32:26.725Z,8.08
2023-12-09T08:33:26.624Z,8.07
2023-12-09T08:34:26.675Z,8.07
2023-12-09T08:35:26.524Z,8.04
2023-12-09T08:36:26.423Z,8.04
2023-12-09T08:37:26.649Z,8.07
2023-12-09T08:38:26.377Z,8.08
2023-12-09T08:39:26.413Z,8.10
2023-12-09T08:40:26.335Z,8.10
2023-12-09T08:41:28.694Z,8.14
2023-12-09T08:42:26.619Z,8.15
2023-12-09T08:43:26.318Z,8.17
2023-12-09T08:44:26.948Z,8.17
2023-12-09T08:45:26.310Z,8.18
2023-12-09T08:46:26.306Z,8.20
2023-12-09T08:47:26.272Z,8.22
2023-12-09T08:48:26.540Z,8.22
2023-12-09T08:49:26.282Z,8.25
2023-12-09T08:50:26.347Z,8.26
2023-12-09T08:51:26.295Z,8.26
2023-12-09T08:52:26.424Z,8.28
2023-12-09T08:53:26.191Z,8.30
2023-12-09T08:54:26.211Z,8.33
2023-12-09T08:55:26.199Z,8.35
2023-12-09T08:56:26.247Z,8.36
2023-12-09T08:57:26.176Z,8.37
2023-12-09T08:58:26.128Z,8.37
2023-12-09T08:59:26.132Z,8.40
2023-12-09T09:00:26.154Z,8.40
2023-12-09T09:01:26.137Z,8.42
2023-12-09T09:02:26.251Z,8.44
2023-12-09T09:03:26.176Z,8.48
2023-12-09T09:04:26.134Z,8.45
2023-12-09T09:05:26.230Z,8.50
2023-12-09T09:06:26.066Z,8.50
2023-12-09T09:07:26.022Z,8.51
2023-12-09T09:08:26.025Z,8.51
2023-12-09T09:09:26.044Z,8.53
2023-12-09T09:10:25.984Z,8.54
2023-12-09T09:11:25.975Z,8.55
2023-12-09T09:12:26.355Z,8.57
2023-12-09T09:13:25.980Z,8.57
2023-12-09T09:14:25.939Z,8.58
2023-12-09T09:15:25.966Z,8.62
2023-12-09T09:16:25.960Z,8.65
2023-12-09T09:17:25.913Z,8.68
2023-12-09T09:18:26.057Z,8.69
2023-12-09T09:19:25.968Z,8.71
2023-12-09T09:20:25.864Z,8.72
2023-12-09T09:21:25.891Z,8.76
2023-12-09T09:22:26.086Z,8.78
2023-12-09T09:23:25.897Z,8.79
2023-12-09T09:24:25.819Z,8.81
2023-12-09T09:25:25.840Z,8.81
2023-12-09T09:26:25.792Z,8.79
2023-12-09T09:27:25.815Z,8.81
2023-12-09T09:28:25.789Z,8.83
2023-12-09T09:29:25.788Z,8.83
2023-12-09T09:30:25.828Z,8.81
2023-12-09T09:31:25.747Z,8.84
2023-12-09T09:32:26.214Z,8.81
2023-12-09T09:33:28.185Z,8.79
2023-12-09T09:34:25.796Z,8.81
2023-12-09T09:35:25.693Z,8.86
2023-12-09T09:36:25.751Z,8.90
2023-12-09T09:37:25.670Z,8.94
2023-12-09T09:38:25.658Z,8.97
2023-12-09T09:39:25.707Z,9.01
2023-12-09T09:40:25.623Z,8.99
2023-12-09T09:41:25.618Z,9.01
2023-12-09T09:42:25.852Z,9.02
2023-12-09T09:43:25.606Z,9.02
2023-12-09T09:44:25.597Z,9.05
2023-12-09T09:45:28.752Z,9.05
2023-12-09T09:46:26.580Z,9.09
2023-12-09T09:47:25.594Z,9.06
2023-12-09T09:48:25.847Z,9.09
2023-12-09T09:49:25.650Z,9.10
2023-12-09T09:50:25.517Z,9.10
2023-12-09T09:51:27.276Z,9.13
2023-12-09T09:52:25.800Z,9.15
2023-12-09T09:53:25.487Z,9.15
2023-12-09T09:54:25.545Z,9.16
2023-12-09T09:55:25.483Z,9.18
2023-12-09T09:56:25.440Z,9.24
2023-12-09T09:57:28.012Z,9.24
2023-12-09T09:58:25.417Z,9.25
2023-12-09T09:59:25.409Z,9.27
2023-12-09T10:00:25.497Z,9.27
2023-12-09T10:01:25.433Z,9.28
2023-12-09T10:02:25.611Z,9.31
2023-12-09T10:03:25.410Z,9.30
2023-12-09T10:04:25.406Z,9.30
2023-12-09T10:05:25.419Z,9.28
2023-12-09T10:06:25.422Z,9.30
2023-12-09T10:07:25.420Z,9.27
2023-12-09T10:08:25.332Z,9.28
2023-12-09T10:09:25.403Z,9.28
2023-12-09T10:10:25.280Z,9.28
2023-12-09T10:11:25.327Z,9.30
2023-12-09T10:12:32.347Z,9.31
2023-12-09T10:13:25.250Z,9.30
2023-12-09T10:14:25.242Z,9.34
2023-12-09T10:15:25.343Z,9.31
2023-12-09T10:16:25.205Z,9.34
2023-12-09T10:17:25.273Z,9.34
2023-12-09T10:18:25.337Z,9.35
2023-12-09T10:19:25.297Z,9.35
2023-12-09T10:20:25.164Z,9.35
2023-12-09T10:21:25.263Z,9.38
2023-12-09T10:22:25.375Z,9.38
2023-12-09T10:23:25.195Z,9.35
2023-12-09T10:24:25.185Z,9.32
2023-12-09T10:25:25.167Z,9.32
2023-12-09T10:26:25.084Z,9.34
2023-12-09T10:27:25.109Z,9.32
2023-12-09T10:28:25.071Z,9.31
2023-12-09T10:29:25.104Z,9.32
2023-12-09T10:30:25.114Z,9.32
2023-12-09T10:31:25.079Z,9.32
2023-12-09T10:32:25.268Z,9.34
2023-12-09T10:33:25.150Z,9.34
2023-12-09T10:34:25.128Z,9.34
2023-12-09T10:35:24.996Z,9.34
2023-12-09T10:36:25.017Z,9.32
2023-12-09T10:37:24.960Z,9.35
2023-12-09T10:38:24.947Z,9.34
2023-12-09T10:39:25.039Z,9.31
2023-12-09T10:40:26.853Z,9.32
2023-12-09T10:41:24.953Z,9.31
2023-12-09T10:42:25.317Z,9.32
2023-12-09T10:43:24.918Z,9.31
2023-12-09T10:44:24.884Z,9.32
2023-12-09T10:45:25.076Z,9.31
2023-12-09T10:46:24.847Z,9.31
2023-12-09T10:47:24.914Z,9.31
2023-12-09T10:48:24.978Z,9.34
2023-12-09T10:49:24.883Z,9.34
2023-12-09T10:50:24.798Z,9.35
2023-12-09T10:51:24.878Z,9.35
2023-12-09T10:52:25.074Z,9.39
2023-12-09T10:53:24.780Z,9.40
2023-12-09T10:54:24.852Z,9.35
2023-12-09T10:55:24.865Z,9.35
2023-12-09T10:56:24.808Z,9.39
2023-12-09T10:57:24.901Z,9.40
2023-12-09T10:58:24.742Z,9.42
2023-12-09T10:59:24.755Z,9.42
2023-12-09T11:00:24.801Z,9.40
2023-12-09T11:01:24.774Z,9.40
2023-12-09T11:02:24.864Z,9.42
2023-12-09T11:03:24.840Z,9.43
2023-12-09T11:04:24.831Z,9.45
2023-12-09T11:05:24.754Z,9.46
2023-12-09T11:06:25.438Z,9.49
2023-12-09T11:07:24.693Z,9.49
2023-12-09T11:08:24.649Z,9.49
2023-12-09T11:09:24.695Z,9.49
2023-12-09T11:10:24.708Z,9.49
2023-12-09T11:11:24.634Z,9.49
2023-12-09T11:12:24.882Z,9.52
2023-12-09T11:13:24.565Z,9.56
2023-12-09T11:14:25.521Z,9.53
2023-12-09T11:15:25.630Z,9.57
2023-12-09T11:16:24.576Z,9.56
2023-12-09T11:17:29.273Z,9.57
2023-12-09T11:18:24.711Z,9.57
2023-12-09T11:19:24.803Z,9.56
2023-12-09T11:20:24.539Z,9.56
2023-12-09T11:21:24.551Z,9.56
2023-12-09T11:22:24.553Z,9.53
2023-12-09T11:23:24.427Z,9.56
2023-12-09T11:24:24.498Z,9.53
2023-12-09T11:25:24.688Z,9.56
2023-12-09T11:26:24.393Z,9.58
2023-12-09T11:27:24.408Z,9.61
2023-12-09T11:28:24.363Z,9.63
2023-12-09T11:29:24.358Z,9.64
2023-12-09T11:30:24.377Z,9.61
2023-12-09T11:31:24.379Z,9.64
2023-12-09T11:32:24.573Z,9.61
2023-12-09T11:33:24.390Z,9.63
2023-12-09T11:34:24.343Z,9.63
2023-12-09T11:35:24.296Z,9.61
2023-12-09T11:36:24.761Z,9.63
2023-12-09T11:37:24.286Z,9.61
2023-12-09T11:38:24.253Z,9.60
2023-12-09T11:39:24.422Z,9.60
2023-12-09T11:40:24.226Z,9.61
2023-12-09T11:41:24.215Z,9.63
2023-12-09T11:42:24.223Z,9.61
2023-12-09T11:43:24.198Z,9.60
2023-12-09T11:44:24.204Z,9.58
2023-12-09T11:45:24.184Z,9.57
2023-12-09T11:46:24.157Z,9.60
2023-12-09T11:47:24.159Z,9.57
2023-12-09T11:48:24.186Z,9.53
2023-12-09T11:49:24.214Z,9.53
2023-12-09T11:50:24.138Z,9.52
2023-12-09T11:51:24.171Z,9.53
2023-12-09T11:52:24.104Z,9.53
2023-12-09T11:53:24.071Z,9.53
2023-12-09T11:54:24.073Z,9.53
2023-12-09T11:55:24.061Z,9.53
2023-12-09T11:56:24.040Z,9.50
2023-12-09T11:57:24.082Z,9.50
2023-12-09T11:58:24.016Z,9.52
2023-12-09T11:59:24.015Z,9.52
2023-12-09T12:00:24.031Z,9.52
2023-12-09T12:01:24.171Z,9.56
2023-12-09T12:02:23.999Z,9.53
2023-12-09T12:03:24.072Z,9.52
2023-12-09T12:04:24.026Z,9.52
2023-12-09T12:05:23.957Z,9.50
2023-12-09T12:06:23.945Z,9.49
2023-12-09T12:07:23.907Z,9.49
2023-12-09T12:08:23.913Z,9.50
2023-12-09T12:09:23.957Z,9.49
2023-12-09T12:10:23.881Z,9.50
2023-12-09T12:11:23.888Z,9.52
2023-12-09T12:12:23.993Z,9.52
2023-12-09T12:13:23.857Z,9.49
2023-12-09T12:14:23.840Z,9.49
2023-12-09T12:15:23.848Z,9.49
2023-12-09T12:16:23.882Z,9.50
2023-12-09T12:17:23.853Z,9.52
2023-12-09T12:18:23.910Z,9.53
2023-12-09T12:19:23.930Z,9.53
2023-12-09T12:20:23.764Z,9.53
2023-12-09T12:21:23.815Z,9.50
2023-12-09T12:22:23.764Z,9.50
2023-12-09T12:23:30.204Z,9.50
2023-12-09T12:24:24.795Z,9.49
2023-12-09T12:25:23.717Z,9.49
2023-12-09T12:26:23.728Z,9.48
2023-12-09T12:27:25.848Z,9.48
2023-12-09T12:28:23.709Z,9.49
2023-12-09T12:29:23.668Z,9.50
2023-12-09T12:30:23.712Z,9.49
2023-12-09T12:31:23.676Z,9.50
2023-12-09T12:32:23.629Z,9.50
2023-12-09T12:33:23.809Z,9.52
2023-12-09T12:34:23.729Z,9.52
2023-12-09T12:35:23.615Z,9.52
2023-12-09T12:36:23.665Z,9.52
2023-12-09T12:37:23.597Z,9.52
2023-12-09T12:38:23.557Z,9.50
2023-12-09T12:39:25.976Z,9.52
2023-12-09T12:40:23.537Z,9.56
2023-12-09T12:41:23.525Z,9.57
2023-12-09T12:42:23.522Z,9.56
2023-12-09T12:43:23.551Z,9.53
2023-12-09T12:44:23.493Z,9.56
2023-12-09T12:45:26.230Z,9.57
2023-12-09T12:46:23.460Z,9.53
2023-12-09T12:47:23.469Z,9.56
2023-12-09T12:48:23.655Z,9.57
2023-12-09T12:49:23.488Z,9.56
2023-12-09T12:50:23.437Z,9.57
2023-12-09T12:51:26.309Z,9.57
2023-12-09T12:52:23.455Z,9.57
2023-12-09T12:53:23.402Z,9.57
2023-12-09T12:54:23.392Z,9.57
2023-12-09T12:55:23.387Z,9.56
2023-12-09T12:56:23.365Z,9.56
2023-12-09T12:57:23.392Z,9.57
2023-12-09T12:58:23.367Z,9.57
2023-12-09T12:59:23.362Z,9.58
2023-12-09T13:00:23.317Z,9.57
2023-12-09T13:01:23.376Z,9.58
2023-12-09T13:02:23.323Z,9.57
2023-12-09T13:03:23.358Z,9.60
2023-12-09T13:04:23.282Z,9.60
2023-12-09T13:05:23.242Z,9.58
2023-12-09T13:06:23.333Z,9.60
2023-12-09T13:07:23.216Z,9.58
2023-12-09T13:08:23.241Z,9.58
2023-12-09T13:09:23.266Z,9.61
2023-12-09T13:10:23.187Z,9.63
2023-12-09T13:11:23.171Z,9.67
2023-12-09T13:12:23.223Z,9.66
2023-12-09T13:13:23.160Z,9.70
2023-12-09T13:14:23.204Z,9.73
2023-12-09T13:15:23.222Z,9.79
2023-12-09T13:16:23.126Z,9.82
2023-12-09T13:17:23.105Z,9.85
2023-12-09T13:18:23.374Z,9.88